Time;durP1;ratioP1;P1;durP2;ratioP2;P2;SDS_P1;SDS_P2;PMS_P1;PMS_P2;Temp;Humidity;BMP_temperature;BMP_pressure;BME280_temperature;BME280_humidity;BME280_pressure;Samples;Min_cycle;Max_cycle;Signal;HPM_P1;HPM_P2
2022/05/11 00:01:33;;;;;;;5.78;3.70;;;;;;;;;;5035237;28;20378;-63
2022/05/11 00:04:00;;;;;;;6.93;3.67;;;;;;;;;;5035016;28;20071;-65
2022/05/11 00:06:27;;;;;;;6.40;3.42;;;;;;;;;;5035234;28;20030;-63
2022/05/11 00:08:53;;;;;;;12.57;5.38;;;;;;;;;;5035069;28;20155;-65
2022/05/11 00:11:19;;;;;;;6.75;3.97;;;;;;;;;;5035382;28;20033;-65
2022/05/11 00:13:45;;;;;;;5.90;4.07;;;;;;;;;;5035059;28;20079;-64
2022/05/11 00:16:11;;;;;;;7.22;4.55;;;;;;;;;;5034669;28;20028;-65
2022/05/11 00:18:38;;;;;;;5.07;3.78;;;;;;;;;;5034528;28;20471;-64
2022/05/11 00:21:03;;;;;;;7.40;3.67;;;;;;;;;;5034845;28;20434;-65
2022/05/11 00:23:31;;;;;;;5.10;3.42;;;;;;;;;;5033983;28;20021;-63
2022/05/11 00:25:56;;;;;;;7.32;3.30;;;;;;;;;;5035650;28;20021;-63
2022/05/11 00:28:22;;;;;;;5.43;3.10;;;;;;;;;;5016549;28;20203;-63
2022/05/11 00:30:48;;;;;;;6.55;3.45;;;;;;;;;;5014648;28;20395;-64
2022/05/11 00:33:15;;;;;;;7.10;3.90;;;;;;;;;;5014427;28;20026;-63
2022/05/11 00:35:42;;;;;;;4.32;3.00;;;;;;;;;;5014449;28;20025;-63
2022/05/11 00:38:07;;;;;;;6.78;3.15;;;;;;;;;;5014613;28;20113;-64
2022/05/11 00:40:39;;;;;;;7.38;3.80;;;;;;;;;;5014372;28;20542;-65
2022/05/11 00:43:05;;;;;;;8.50;3.60;;;;;;;;;;5014177;28;20061;-65
2022/05/11 00:45:30;;;;;;;7.45;3.65;;;;;;;;;;5014446;28;20058;-64
2022/05/11 00:48:00;;;;;;;5.53;3.50;;;;;;;;;;5013909;28;20030;-64
2022/05/11 00:50:30;;;;;;;5.10;3.55;;;;;;;;;;5014594;28;20033;-65
2022/05/11 00:53:09;;;;;;;7.10;3.78;;;;;;;;;;5014026;28;20030;-63
2022/05/11 00:55:40;;;;;;;4.82;3.08;;;;;;;;;;5014274;28;20026;-65
2022/05/11 00:58:14;;;;;;;6.78;3.47;;;;;;;;;;5014114;28;20117;-65
2022/05/11 01:00:43;;;;;;;9.15;3.50;;;;;;;;;;5013971;28;20022;-64
2022/05/11 01:03:12;;;;;;;4.35;2.78;;;;;;;;;;5013873;28;20160;-64
2022/05/11 01:05:41;;;;;;;3.57;2.70;;;;;;;;;;5014037;28;20030;-65
2022/05/11 01:08:07;;;;;;;7.18;2.90;;;;;;;;;;5013922;28;20030;-64
2022/05/11 01:10:33;;;;;;;5.93;3.25;;;;;;;;;;5013963;28;20026;-63
2022/05/11 01:13:02;;;;;;;5.75;3.00;;;;;;;;;;5013930;28;20453;-63
2022/05/11 01:15:32;;;;;;;4.60;2.90;;;;;;;;;;5013557;28;20088;-64
2022/05/11 01:18:00;;;;;;;4.82;3.22;;;;;;;;;;5013887;28;20026;-64
2022/05/11 01:20:29;;;;;;;4.55;3.08;;;;;;;;;;5013709;28;20034;-64
2022/05/11 01:23:16;;;;;;;5.18;3.03;;;;;;;;;;5013757;28;20034;-63
2022/05/11 01:25:41;;;;;;;5.00;3.00;;;;;;;;;;5030117;28;20505;-63
2022/05/11 01:28:13;;;;;;;4.55;3.30;;;;;;;;;;5032797;28;20036;-65
2022/05/11 01:30:44;;;;;;;6.00;3.00;;;;;;;;;;5031724;28;20061;-63
2022/05/11 01:33:14;;;;;;;6.47;3.20;;;;;;;;;;5033431;28;20045;-63
2022/05/11 01:35:44;;;;;;;6.07;2.92;;;;;;;;;;5033406;28;20036;-63
2022/05/11 01:38:22;;;;;;;5.30;3.50;;;;;;;;;;5033181;28;20025;-64
2022/05/11 01:40:48;;;;;;;6.40;3.17;;;;;;;;;;5032888;28;20518;-64
2022/05/11 01:43:23;;;;;;;6.38;3.70;;;;;;;;;;5032815;28;20084;-64
2022/05/11 01:45:49;;;;;;;4.93;3.30;;;;;;;;;;5032926;28;20025;-64
2022/05/11 01:48:15;;;;;;;5.22;3.22;;;;;;;;;;5033002;28;20079;-65
2022/05/11 01:50:41;;;;;;;5.07;3.10;;;;;;;;;;5032925;28;20036;-64
2022/05/11 01:53:07;;;;;;;6.63;3.67;;;;;;;;;;5032965;28;20037;-62
2022/05/11 01:55:33;;;;;;;6.70;4.03;;;;;;;;;;5032977;28;20080;-61
2022/05/11 01:58:00;;;;;;;6.30;3.97;;;;;;;;;;5032797;28;20120;-63
2022/05/11 02:00:26;;;;;;;11.48;4.30;;;;;;;;;;5032536;28;20044;-66
2022/05/11 02:02:52;;;;;;;6.50;3.90;;;;;;;;;;5032700;28;20084;-63
2022/05/11 02:08:02;;;;;;;7.75;4.47;;;;;;;;;;5032553;28;20036;-63
2022/05/11 02:10:28;;;;;;;8.35;4.63;;;;;;;;;;5032669;28;20073;-63
2022/05/11 02:12:57;;;;;;;10.02;4.85;;;;;;;;;;5032571;28;20469;-64
2022/05/11 02:15:23;;;;;;;11.20;4.65;;;;;;;;;;5032609;28;20060;-64
2022/05/11 02:17:49;;;;;;;7.75;4.43;;;;;;;;;;5032628;28;20116;-63
2022/05/11 02:20:17;;;;;;;9.77;4.93;;;;;;;;;;5032399;28;20100;-63
2022/05/11 02:22:43;;;;;;;7.25;4.85;;;;;;;;;;5032419;28;20035;-64
2022/05/11 02:25:11;;;;;;;10.38;4.20;;;;;;;;;;5032429;28;20022;-63
2022/05/11 02:27:36;;;;;;;8.60;5.13;;;;;;;;;;5032392;28;20120;-64
2022/05/11 02:30:05;;;;;;;9.38;5.50;;;;;;;;;;5032449;28;20100;-63
2022/05/11 02:32:30;;;;;;;6.93;4.95;;;;;;;;;;5025407;28;20037;-64
2022/05/11 02:35:14;;;;;;;6.93;4.53;;;;;;;;;;5012684;28;20075;-65
2022/05/11 02:37:46;;;;;;;7.68;4.72;;;;;;;;;;5012954;28;20435;-64
2022/05/11 02:40:16;;;;;;;11.48;4.70;;;;;;;;;;5014543;28;20136;-64
2022/05/11 02:42:42;;;;;;;9.48;5.13;;;;;;;;;;5016289;28;20045;-63
2022/05/11 02:45:08;;;;;;;7.63;4.68;;;;;;;;;;5016621;28;20033;-65
2022/05/11 02:47:34;;;;;;;9.93;4.80;;;;;;;;;;5016741;28;20471;-64
2022/05/11 02:50:00;;;;;;;8.25;4.90;;;;;;;;;;5016412;28;20160;-64
2022/05/11 02:52:25;;;;;;;8.93;4.68;;;;;;;;;;5016542;28;20113;-65
2022/05/11 02:54:51;;;;;;;7.07;4.53;;;;;;;;;;5016531;28;20037;-64
2022/05/11 02:57:19;;;;;;;7.78;4.88;;;;;;;;;;5016216;28;20026;-64
2022/05/11 02:59:45;;;;;;;9.73;5.00;;;;;;;;;;5016378;28;20156;-64
2022/05/11 03:02:11;;;;;;;11.32;4.75;;;;;;;;;;5016230;28;20045;-64
2022/05/11 03:04:37;;;;;;;7.18;5.05;;;;;;;;;;5016378;28;20034;-63
2022/05/11 03:07:03;;;;;;;10.25;5.28;;;;;;;;;;5016562;28;20049;-64
2022/05/11 03:09:28;;;;;;;6.75;4.60;;;;;;;;;;5016221;28;20030;-64
2022/05/11 03:11:54;;;;;;;8.30;5.15;;;;;;;;;;5016011;28;20073;-64
2022/05/11 03:14:19;;;;;;;9.13;5.25;;;;;;;;;;5016113;28;20025;-65
2022/05/11 03:16:45;;;;;;;6.88;5.22;;;;;;;;;;5014800;28;20498;-65
2022/05/11 03:19:10;;;;;;;8.82;5.53;;;;;;;;;;5015912;28;20025;-64
2022/05/11 03:21:36;;;;;;;10.43;5.47;;;;;;;;;;5015930;28;20382;-65
2022/05/11 03:24:02;;;;;;;14.43;6.18;;;;;;;;;;5019028;28;20021;-65
2022/05/11 03:26:28;;;;;;;10.23;6.07;;;;;;;;;;5035443;28;20017;-63
2022/05/11 03:28:54;;;;;;;9.65;5.82;;;;;;;;;;5035827;28;20021;-65
2022/05/11 03:31:19;;;;;;;8.43;5.75;;;;;;;;;;5035774;28;20359;-64
2022/05/11 03:36:43;;;;;;;10.55;5.90;;;;;;;;;;4993934;28;20042;-63
2022/05/11 03:39:10;;;;;;;12.15;6.32;;;;;;;;;;4993828;28;20031;-63
2022/05/11 03:41:36;;;;;;;12.43;6.20;;;;;;;;;;4993493;28;20109;-63
2022/05/11 03:44:02;;;;;;;9.45;5.82;;;;;;;;;;4993396;28;20133;-64
2022/05/11 03:46:27;;;;;;;11.07;5.38;;;;;;;;;;4993761;28;20042;-63
2022/05/11 03:48:53;;;;;;;13.00;6.30;;;;;;;;;;4993668;28;20026;-63
2022/05/11 03:51:18;;;;;;;12.85;6.45;;;;;;;;;;4993045;28;20491;-63
2022/05/11 03:53:44;;;;;;;9.63;6.07;;;;;;;;;;4993671;28;20491;-64
2022/05/11 03:56:10;;;;;;;10.48;6.53;;;;;;;;;;4993127;28;20037;-64
2022/05/11 03:58:35;;;;;;;9.50;5.80;;;;;;;;;;4993475;28;20424;-63
2022/05/11 04:01:01;;;;;;;9.82;6.03;;;;;;;;;;4993304;28;20034;-64
2022/05/11 04:03:26;;;;;;;7.10;5.28;;;;;;;;;;4993593;28;20121;-64
2022/05/11 04:05:52;;;;;;;8.00;5.60;;;;;;;;;;4993449;28;20046;-64
2022/05/11 04:08:18;;;;;;;10.45;5.72;;;;;;;;;;4993369;28;20154;-63
2022/05/11 04:10:44;;;;;;;8.88;5.60;;;;;;;;;;4992977;28;20030;-64
2022/05/11 04:13:10;;;;;;;8.75;5.13;;;;;;;;;;5028936;28;20038;-64
2022/05/11 04:15:36;;;;;;;9.02;4.93;;;;;;;;;;5034726;28;20033;-64
2022/05/11 04:18:01;;;;;;;8.50;5.18;;;;;;;;;;5034682;28;20032;-64
2022/05/11 04:20:27;;;;;;;7.50;4.90;;;;;;;;;;5016960;28;20032;-65
2022/05/11 04:22:52;;;;;;;11.32;5.10;;;;;;;;;;5014671;28;20037;-65
2022/05/11 04:25:18;;;;;;;7.93;4.90;;;;;;;;;;5027804;28;20079;-65
2022/05/11 04:27:45;;;;;;;9.98;5.88;;;;;;;;;;5033046;28;20033;-64
2022/05/11 04:30:15;;;;;;;9.48;4.78;;;;;;;;;;5034377;28;20497;-65
2022/05/11 04:32:41;;;;;;;6.90;4.95;;;;;;;;;;5034386;28;20060;-64
2022/05/11 04:35:08;;;;;;;9.43;4.97;;;;;;;;;;5034463;28;20029;-65
2022/05/11 04:37:33;;;;;;;6.45;5.00;;;;;;;;;;5034601;28;20074;-64
2022/05/11 04:39:59;;;;;;;7.78;5.15;;;;;;;;;;5034025;28;20025;-64
2022/05/11 04:42:24;;;;;;;7.75;5.03;;;;;;;;;;5033966;28;20056;-65
2022/05/11 04:44:53;;;;;;;8.25;4.93;;;;;;;;;;5034246;28;20087;-65
2022/05/11 04:47:18;;;;;;;7.22;5.28;;;;;;;;;;5025726;28;20026;-65
2022/05/11 04:49:44;;;;;;;8.57;5.60;;;;;;;;;;5014362;28;20026;-64
2022/05/11 04:52:13;;;;;;;7.57;5.75;;;;;;;;;;5014252;28;20022;-65
2022/05/11 04:54:42;;;;;;;8.93;5.60;;;;;;;;;;5014019;28;20032;-65
2022/05/11 04:57:08;;;;;;;10.93;5.55;;;;;;;;;;5014102;28;20026;-65
2022/05/11 04:59:34;;;;;;;7.57;5.53;;;;;;;;;;5014000;28;20395;-64
2022/05/11 05:02:01;;;;;;;9.57;6.10;;;;;;;;;;5013813;28;20026;-64
2022/05/11 05:04:27;;;;;;;14.15;6.13;;;;;;;;;;5012855;28;20022;-65
2022/05/11 05:06:53;;;;;;;16.60;5.45;;;;;;;;;;5014119;28;20026;-65
2022/05/11 05:09:19;;;;;;;19.77;5.85;;;;;;;;;;5013531;28;20026;-64
2022/05/11 05:11:44;;;;;;;8.30;5.20;;;;;;;;;;5013768;28;20076;-64
2022/05/11 05:14:11;;;;;;;11.27;5.85;;;;;;;;;;5013661;28;20029;-65
2022/05/11 05:16:36;;;;;;;16.33;5.95;;;;;;;;;;5013708;28;20018;-65
2022/05/11 05:19:02;;;;;;;9.57;5.47;;;;;;;;;;5013699;28;20014;-65
2022/05/11 05:21:28;;;;;;;8.52;5.55;;;;;;;;;;5013649;28;20450;-65
2022/05/11 05:23:53;;;;;;;10.20;6.28;;;;;;;;;;5014949;28;20034;-64
2022/05/11 05:26:19;;;;;;;7.97;5.85;;;;;;;;;;5033032;28;20083;-64
2022/05/11 05:31:31;;;;;;;9.45;5.70;;;;;;;;;;5033228;28;20083;-64
2022/05/11 05:34:00;;;;;;;9.20;5.45;;;;;;;;;;5031840;28;20029;-65
2022/05/11 05:36:28;;;;;;;8.57;5.88;;;;;;;;;;5032032;28;20025;-65
2022/05/11 05:38:54;;;;;;;8.15;5.53;;;;;;;;;;5030404;28;20075;-64
2022/05/11 05:41:20;;;;;;;7.80;5.28;;;;;;;;;;5024341;28;20403;-64
2022/05/11 05:43:45;;;;;;;8.15;6.00;;;;;;;;;;5032180;28;20088;-65
2022/05/11 05:46:11;;;;;;;9.27;5.85;;;;;;;;;;5032484;28;20018;-64
2022/05/11 05:48:37;;;;;;;8.75;6.20;;;;;;;;;;5032560;28;20035;-64
2022/05/11 05:51:04;;;;;;;6.95;5.30;;;;;;;;;;5032172;28;20025;-65
2022/05/11 05:53:30;;;;;;;7.18;5.38;;;;;;;;;;5032500;28;20030;-65
2022/05/11 05:55:56;;;;;;;7.40;5.75;;;;;;;;;;5032827;28;20028;-64
2022/05/11 05:58:21;;;;;;;12.48;5.65;;;;;;;;;;5032790;28;20116;-63
2022/05/11 06:00:47;;;;;;;8.35;6.03;;;;;;;;;;5032262;28;20029;-66
2022/05/11 06:03:23;;;;;;;10.27;6.65;;;;;;;;;;5032173;28;20030;-65
2022/05/11 06:05:49;;;;;;;7.65;5.88;;;;;;;;;;5032087;28;20188;-66
2022/05/11 06:08:17;;;;;;;9.27;6.15;;;;;;;;;;5032037;28;20105;-63
2022/05/11 06:10:44;;;;;;;7.63;5.75;;;;;;;;;;5032062;28;20040;-63
2022/05/11 06:13:12;;;;;;;7.53;5.18;;;;;;;;;;5033329;28;20044;-66
2022/05/11 06:15:39;;;;;;;10.32;5.68;;;;;;;;;;5012364;28;20054;-65
2022/05/11 06:18:07;;;;;;;10.45;5.75;;;;;;;;;;5012726;28;20029;-64
2022/05/11 06:20:33;;;;;;;10.07;5.50;;;;;;;;;;5012453;28;20064;-63
2022/05/11 06:22:58;;;;;;;11.98;5.45;;;;;;;;;;5016542;28;20044;-65
2022/05/11 06:25:24;;;;;;;10.45;5.50;;;;;;;;;;5032327;28;20164;-64
2022/05/11 06:27:50;;;;;;;10.65;5.63;;;;;;;;;;5023336;28;20018;-65
2022/05/11 06:30:15;;;;;;;10.07;5.50;;;;;;;;;;5032140;28;20083;-65
2022/05/11 06:32:41;;;;;;;14.00;5.85;;;;;;;;;;5032485;28;20357;-64
2022/05/11 06:35:07;;;;;;;9.90;5.20;;;;;;;;;;5032266;28;20104;-66
2022/05/11 06:37:32;;;;;;;9.00;6.22;;;;;;;;;;5032368;28;20110;-64
2022/05/11 06:39:59;;;;;;;11.27;5.53;;;;;;;;;;5030810;28;20053;-64
2022/05/11 06:42:24;;;;;;;12.48;6.53;;;;;;;;;;5032064;28;20076;-63
2022/05/11 06:44:50;;;;;;;9.90;5.30;;;;;;;;;;5032483;28;20057;-63
2022/05/11 06:47:17;;;;;;;8.20;5.30;;;;;;;;;;5032564;28;20036;-65
2022/05/11 06:49:42;;;;;;;13.20;4.75;;;;;;;;;;5032089;28;20037;-65
2022/05/11 06:52:08;;;;;;;10.23;6.35;;;;;;;;;;5032516;28;20032;-66
2022/05/11 07:00:03;;;;;;;11.65;5.22;;;;;;;;;;5032206;28;20025;-64
2022/05/11 07:02:28;;;;;;;8.13;5.30;;;;;;;;;;5032060;28;20394;-66
2022/05/11 07:04:54;;;;;;;8.20;5.75;;;;;;;;;;5031924;28;20021;-66
2022/05/11 07:07:19;;;;;;;12.65;5.38;;;;;;;;;;5032209;28;20078;-66
2022/05/11 07:09:46;;;;;;;11.70;5.30;;;;;;;;;;5032090;28;20040;-66
2022/05/11 07:12:17;;;;;;;6.68;4.85;;;;;;;;;;5032060;28;20553;-66
2022/05/11 07:14:47;;;;;;;6.35;5.15;;;;;;;;;;5032202;28;20033;-66
2022/05/11 07:17:27;;;;;;;7.45;5.60;;;;;;;;;;5032066;28;20033;-66
2022/05/11 07:19:53;;;;;;;7.25;4.97;;;;;;;;;;5031817;28;20121;-66
2022/05/11 07:22:18;;;;;;;7.07;5.47;;;;;;;;;;5031807;28;20116;-66
2022/05/11 07:24:44;;;;;;;8.85;5.90;;;;;;;;;;5031906;28;20028;-66
2022/05/11 07:27:10;;;;;;;7.63;6.00;;;;;;;;;;5033437;28;20385;-66
2022/05/11 07:29:36;;;;;;;6.75;5.50;;;;;;;;;;5035373;28;20028;-66
2022/05/11 07:32:02;;;;;;;10.68;5.93;;;;;;;;;;5035699;28;20021;-66
2022/05/11 07:34:28;;;;;;;12.10;5.88;;;;;;;;;;5033959;28;20108;-66
2022/05/11 07:36:54;;;;;;;7.65;5.45;;;;;;;;;;5035576;28;20465;-66
2022/05/11 07:39:23;;;;;;;7.80;5.32;;;;;;;;;;5035476;28;20494;-66
2022/05/11 07:41:50;;;;;;;9.82;6.03;;;;;;;;;;5035105;28;20055;-66
2022/05/11 07:44:16;;;;;;;8.50;6.05;;;;;;;;;;5032929;28;20604;-64
2022/05/11 07:46:45;;;;;;;9.27;5.72;;;;;;;;;;5034225;28;20034;-64
2022/05/11 07:49:10;;;;;;;11.70;6.78;;;;;;;;;;5034435;28;20049;-64
2022/05/11 07:51:36;;;;;;;7.78;5.65;;;;;;;;;;5034578;28;20036;-64
2022/05/11 07:54:03;;;;;;;9.27;5.25;;;;;;;;;;5034822;28;20026;-65
2022/05/11 08:01:58;;;;;;;12.52;5.30;;;;;;;;;;5034513;28;20084;-64
2022/05/11 08:04:23;;;;;;;9.82;4.90;;;;;;;;;;5034864;28;20029;-65
2022/05/11 08:06:49;;;;;;;10.45;6.05;;;;;;;;;;5034954;28;20024;-66
2022/05/11 08:09:14;;;;;;;11.40;6.35;;;;;;;;;;5034931;28;20625;-65
2022/05/11 08:11:40;;;;;;;10.15;6.40;;;;;;;;;;5035028;28;20072;-63
2022/05/11 08:14:05;;;;;;;7.95;5.32;;;;;;;;;;5034844;28;20035;-62
2022/05/11 08:16:31;;;;;;;10.65;5.70;;;;;;;;;;5034590;28;20029;-64
2022/05/11 08:18:56;;;;;;;8.00;5.63;;;;;;;;;;5034326;28;20041;-64
2022/05/11 08:21:23;;;;;;;7.10;5.45;;;;;;;;;;5034357;28;20026;-64
2022/05/11 08:23:48;;;;;;;8.35;5.88;;;;;;;;;;5034575;28;20057;-64
2022/05/11 08:26:14;;;;;;;7.55;5.50;;;;;;;;;;5034695;28;20060;-63
2022/05/11 08:28:40;;;;;;;8.18;5.70;;;;;;;;;;5034504;28;20102;-64
2022/05/11 08:33:50;;;;;;;7.80;5.50;;;;;;;;;;5034498;28;20035;-62
2022/05/11 08:36:23;;;;;;;7.63;5.15;;;;;;;;;;5034358;28;20105;-64
2022/05/11 08:38:55;;;;;;;7.63;5.43;;;;;;;;;;5033998;28;20386;-64
2022/05/11 08:41:39;;;;;;;7.63;5.20;;;;;;;;;;5034280;28;20436;-64
2022/05/11 08:44:33;;;;;;;7.72;5.40;;;;;;;;;;5034149;28;20045;-64
2022/05/11 08:47:06;;;;;;;7.18;5.35;;;;;;;;;;5032471;28;20443;-64
2022/05/11 08:49:50;;;;;;;8.43;5.95;;;;;;;;;;5034035;28;20033;-64
2022/05/11 08:52:29;;;;;;;9.90;5.90;;;;;;;;;;5025297;28;20045;-64
2022/05/11 08:55:13;;;;;;;11.02;5.93;;;;;;;;;;5014146;28;20030;-64
2022/05/11 08:57:39;;;;;;;8.73;5.40;;;;;;;;;;5014291;28;20076;-64
2022/05/11 09:00:17;;;;;;;9.40;5.70;;;;;;;;;;5013919;28;20064;-65
2022/05/11 09:02:50;;;;;;;7.72;4.97;;;;;;;;;;5014098;28;20062;-64
2022/05/11 09:05:19;;;;;;;7.63;5.18;;;;;;;;;;5014021;28;20033;-65
2022/05/11 09:07:47;;;;;;;10.68;6.00;;;;;;;;;;5014718;28;20144;-63
2022/05/11 09:10:21;;;;;;;12.20;5.45;;;;;;;;;;5013756;28;20025;-64
2022/05/11 09:12:52;;;;;;;10.38;5.38;;;;;;;;;;5024082;28;20124;-63
2022/05/11 09:15:18;;;;;;;8.65;5.20;;;;;;;;;;5033650;28;20037;-64
2022/05/11 09:17:44;;;;;;;7.82;4.82;;;;;;;;;;5033641;28;20034;-64
2022/05/11 09:20:21;;;;;;;7.93;4.70;;;;;;;;;;5033724;28;20030;-62
2022/05/11 09:22:52;;;;;;;9.65;4.95;;;;;;;;;;5033633;28;20084;-63
2022/05/11 09:25:24;;;;;;;7.88;5.47;;;;;;;;;;5033433;28;20021;-63
2022/05/11 09:27:51;;;;;;;16.13;5.65;;;;;;;;;;5033401;28;20083;-64
2022/05/11 09:30:26;;;;;;;8.38;4.95;;;;;;;;;;5032858;28;20025;-62
2022/05/11 09:33:14;;;;;;;6.47;4.95;;;;;;;;;;5033386;28;20033;-64
2022/05/11 09:35:40;;;;;;;12.88;5.20;;;;;;;;;;5033674;28;20033;-62
2022/05/11 09:38:17;;;;;;;6.35;4.45;;;;;;;;;;5033203;28;20029;-63
2022/05/11 09:40:57;;;;;;;11.60;4.90;;;;;;;;;;5032408;28;20033;-62
2022/05/11 09:43:31;;;;;;;13.07;5.17;;;;;;;;;;5032929;28;20041;-62
2022/05/11 09:45:56;;;;;;;9.52;4.93;;;;;;;;;;5033125;28;20096;-62
2022/05/11 09:48:31;;;;;;;11.32;5.05;;;;;;;;;;5032858;28;20499;-62
2022/05/11 09:51:17;;;;;;;9.80;5.25;;;;;;;;;;5032810;28;20060;-62
2022/05/11 09:54:05;;;;;;;9.95;5.50;;;;;;;;;;5032628;28;20025;-64
2022/05/11 09:56:36;;;;;;;9.55;5.63;;;;;;;;;;5033032;28;20029;-62
2022/05/11 09:59:16;;;;;;;10.30;5.53;;;;;;;;;;5032747;28;20051;-62
2022/05/11 10:01:41;;;;;;;9.10;5.07;;;;;;;;;;5032741;28;20382;-62
2022/05/11 10:04:09;;;;;;;9.13;4.93;;;;;;;;;;5032725;28;20029;-63
2022/05/11 10:06:59;;;;;;;14.57;6.35;;;;;;;;;;5032631;28;20028;-62
2022/05/11 10:09:33;;;;;;;8.95;5.75;;;;;;;;;;5032276;28;20112;-63
2022/05/11 10:12:00;;;;;;;7.60;4.70;;;;;;;;;;5032580;28;20030;-62
2022/05/11 10:23:02;;;;;;;10.43;6.30;;;;;;;;;;5012927;28;20040;-63
2022/05/11 10:25:36;;;;;;;9.40;6.32;;;;;;;;;;5026310;28;20513;-64
2022/05/11 10:28:20;;;;;;;8.98;5.93;;;;;;;;;;5029053;28;20067;-63
2022/05/11 10:30:51;;;;;;;7.75;5.57;;;;;;;;;;5026955;28;20029;-63
2022/05/11 10:33:26;;;;;;;7.57;5.28;;;;;;;;;;5031420;28;20441;-62
2022/05/11 10:36:17;;;;;;;8.20;5.78;;;;;;;;;;5028332;28;20026;-64
2022/05/11 10:39:18;;;;;;;7.28;5.15;;;;;;;;;;5029129;28;20029;-64
2022/05/11 10:41:58;;;;;;;6.95;4.80;;;;;;;;;;5029077;28;20032;-64
2022/05/11 10:44:36;;;;;;;;;;;;;;;;;;5030233;28;20056;-64
2022/05/11 10:47:40;;;;;;;12.90;6.60;;;;;;;;;;5032202;28;19913;-64
2022/05/11 10:50:18;;;;;;;11.52;5.38;;;;;;;;;;5010193;28;20077;-65
2022/05/11 10:52:56;;;;;;;8.55;5.35;;;;;;;;;;5010325;28;20506;-64
2022/05/11 10:55:38;;;;;;;7.97;4.53;;;;;;;;;;5010529;28;20467;-63
2022/05/11 10:58:36;;;;;;;7.85;5.00;;;;;;;;;;5010103;28;20598;-64
2022/05/11 11:01:24;;;;;;;13.02;4.70;;;;;;;;;;5008995;28;20030;-63
2022/05/11 11:04:14;;;;;;;7.30;4.70;;;;;;;;;;5009278;28;20233;-64
2022/05/11 11:09:35;;;;;;;9.15;4.57;;;;;;;;;;4995084;28;20037;-62
2022/05/11 11:12:13;;;;;;;8.20;4.68;;;;;;;;;;5008059;28;20031;-63
2022/05/11 11:14:44;;;;;;;7.75;4.93;;;;;;;;;;5008360;28;20438;-63
2022/05/11 11:17:17;;;;;;;12.65;4.97;;;;;;;;;;5006716;28;20088;-64
2022/05/11 11:19:49;;;;;;;8.00;4.95;;;;;;;;;;5003499;28;20076;-64
2022/05/11 11:22:15;;;;;;;11.43;5.03;;;;;;;;;;4993715;28;20030;-64
2022/05/11 11:24:43;;;;;;;7.22;5.00;;;;;;;;;;5004622;28;20581;-63
2022/05/11 11:27:10;;;;;;;7.50;4.50;;;;;;;;;;5035694;28;20071;-64
2022/05/11 11:29:59;;;;;;;7.30;4.97;;;;;;;;;;5035458;28;20025;-64
2022/05/11 11:32:25;;;;;;;7.70;4.27;;;;;;;;;;5035602;28;20041;-64
2022/05/11 11:35:11;;;;;;;7.95;4.30;;;;;;;;;;5034547;28;20266;-64
2022/05/11 11:37:41;;;;;;;6.97;4.22;;;;;;;;;;5034189;28;20029;-64
2022/05/11 11:40:13;;;;;;;7.95;3.90;;;;;;;;;;5035227;28;20025;-63
2022/05/11 11:42:41;;;;;;;5.72;3.92;;;;;;;;;;5035082;28;20398;-63
2022/05/11 11:45:24;;;;;;;10.90;4.80;;;;;;;;;;5035244;28;20033;-62
2022/05/11 11:48:16;;;;;;;9.30;3.83;;;;;;;;;;5035186;28;20094;-63
2022/05/11 11:50:50;;;;;;;6.82;3.75;;;;;;;;;;5032573;28;20064;-66
2022/05/11 11:53:43;;;;;;;5.97;3.85;;;;;;;;;;5035108;28;20033;-63
2022/05/11 11:56:24;;;;;;;7.25;4.10;;;;;;;;;;5035064;28;20025;-63
2022/05/11 11:59:30;;;;;;;9.77;3.60;;;;;;;;;;5034196;28;20033;-64
2022/05/11 12:02:29;;;;;;;8.65;3.67;;;;;;;;;;5034798;28;20025;-63
2022/05/11 12:04:58;;;;;;;7.15;3.90;;;;;;;;;;5034287;28;20536;-65
2022/05/11 12:16:17;;;;;;;9.60;4.22;;;;;;;;;;5019898;28;20075;-61
2022/05/11 12:18:43;;;;;;;8.05;4.18;;;;;;;;;;5034545;28;20021;-63
2022/05/11 12:21:22;;;;;;;8.07;4.00;;;;;;;;;;5033045;28;20025;-62
2022/05/11 12:23:50;;;;;;;10.63;4.20;;;;;;;;;;5034182;28;20029;-62
2022/05/11 12:26:25;;;;;;;7.03;3.95;;;;;;;;;;5034494;28;20034;-63
2022/05/11 12:28:50;;;;;;;7.25;3.90;;;;;;;;;;5035560;28;20032;-63
2022/05/11 12:31:29;;;;;;;8.80;4.03;;;;;;;;;;5015542;28;20030;-63
2022/05/11 12:33:55;;;;;;;12.77;4.85;;;;;;;;;;5014395;28;20021;-62
2022/05/11 12:36:35;;;;;;;6.85;4.28;;;;;;;;;;5014688;28;20033;-64
2022/05/11 12:39:01;;;;;;;11.38;4.78;;;;;;;;;;5029109;28;20021;-63
2022/05/11 12:41:29;;;;;;;7.30;3.83;;;;;;;;;;5034131;28;20036;-63
2022/05/11 12:44:15;;;;;;;5.97;3.75;;;;;;;;;;5033958;28;20119;-64
2022/05/11 12:46:42;;;;;;;12.07;4.63;;;;;;;;;;5034186;28;20086;-63
2022/05/11 12:49:13;;;;;;;7.68;4.10;;;;;;;;;;5034011;28;20025;-64
2022/05/11 12:51:49;;;;;;;7.55;3.90;;;;;;;;;;5033847;28;20030;-63
2022/05/11 12:54:22;;;;;;;10.30;4.15;;;;;;;;;;5034110;28;20025;-64
2022/05/11 12:57:08;;;;;;;8.18;4.15;;;;;;;;;;5033827;28;20475;-64
2022/05/11 12:59:35;;;;;;;7.72;4.30;;;;;;;;;;5033925;28;20040;-63
2022/05/11 13:02:30;;;;;;;10.23;4.30;;;;;;;;;;5028885;28;20022;-64
2022/05/11 13:04:58;;;;;;;7.40;4.03;;;;;;;;;;5023424;28;20372;-65
2022/05/11 13:07:29;;;;;;;5.82;4.03;;;;;;;;;;5013748;28;20527;-65
2022/05/11 13:09:58;;;;;;;7.30;3.97;;;;;;;;;;5013911;28;20061;-63
2022/05/11 13:12:24;;;;;;;7.43;4.00;;;;;;;;;;5031174;28;20108;-64
2022/05/11 13:14:52;;;;;;;7.85;4.20;;;;;;;;;;5032912;28;20029;-65
2022/05/11 13:17:44;;;;;;;10.25;3.90;;;;;;;;;;5033387;28;20378;-64
2022/05/11 13:20:25;;;;;;;6.05;4.82;;;;;;;;;;5033255;28;20080;-65
2022/05/11 13:22:53;;;;;;;7.07;4.15;;;;;;;;;;5033443;28;20067;-65
2022/05/11 13:25:39;;;;;;;9.57;4.03;;;;;;;;;;5032276;28;20033;-63
2022/05/11 13:28:25;;;;;;;5.68;3.90;;;;;;;;;;5033347;28;20049;-66
2022/05/11 13:30:54;;;;;;;6.45;3.92;;;;;;;;;;5033501;28;20033;-65
2022/05/11 13:33:40;;;;;;;8.95;3.83;;;;;;;;;;5033441;28;20030;-65
2022/05/11 13:36:17;;;;;;;7.05;4.20;;;;;;;;;;5032813;28;20491;-66
2022/05/11 13:38:59;;;;;;;8.85;3.97;;;;;;;;;;5033209;28;20030;-65
2022/05/11 13:41:39;;;;;;;6.80;3.85;;;;;;;;;;5033158;28;20025;-65
2022/05/11 13:44:23;;;;;;;8.23;3.88;;;;;;;;;;5042120;28;20484;-66
2022/05/11 13:49:37;;;;;;;7.10;3.35;;;;;;;;;;5032564;28;20032;-65
2022/05/11 13:52:30;;;;;;;8.35;3.65;;;;;;;;;;5031378;28;20026;-66
2022/05/11 13:54:56;;;;;;;7.28;3.58;;;;;;;;;;5032943;28;20029;-66
2022/05/11 13:57:33;;;;;;;8.32;3.72;;;;;;;;;;5032923;28;20027;-65
2022/05/11 14:00:28;;;;;;;8.30;3.72;;;;;;;;;;5032764;28;20374;-65
2022/05/11 14:03:01;;;;;;;9.57;3.70;;;;;;;;;;5021898;28;20103;-63
2022/05/11 14:05:28;;;;;;;5.25;3.40;;;;;;;;;;5031444;28;20029;-64
2022/05/11 14:07:54;;;;;;;6.85;3.70;;;;;;;;;;5031435;28;20022;-65
2022/05/11 14:10:20;;;;;;;7.93;3.55;;;;;;;;;;5031308;28;20467;-63
2022/05/11 14:12:46;;;;;;;7.70;3.50;;;;;;;;;;5031511;28;20036;-64
2022/05/11 14:15:13;;;;;;;6.50;3.20;;;;;;;;;;5031146;28;20036;-66
2022/05/11 14:17:44;;;;;;;6.75;3.60;;;;;;;;;;5031833;28;20108;-64
2022/05/11 14:20:10;;;;;;;3.55;3.10;;;;;;;;;;5017530;28;20017;-63
2022/05/11 14:22:40;;;;;;;7.50;3.15;;;;;;;;;;5027294;28;20033;-64
2022/05/11 14:25:06;;;;;;;11.77;3.10;;;;;;;;;;5032609;28;20121;-63
2022/05/11 14:27:31;;;;;;;6.78;3.03;;;;;;;;;;5032594;28;20475;-64
2022/05/11 14:29:57;;;;;;;5.20;3.38;;;;;;;;;;5032501;28;20036;-65
2022/05/11 14:32:27;;;;;;;5.13;3.65;;;;;;;;;;5032445;28;20022;-66
2022/05/11 14:34:53;;;;;;;9.90;3.80;;;;;;;;;;5032463;28;20112;-63
2022/05/11 14:37:19;;;;;;;5.85;3.30;;;;;;;;;;5038547;28;20064;-63
2022/05/11 14:39:45;;;;;;;7.72;3.67;;;;;;;;;;5039037;28;20029;-66
2022/05/11 14:42:11;;;;;;;7.13;3.47;;;;;;;;;;5038656;28;20163;-63
2022/05/11 14:44:36;;;;;;;5.25;3.15;;;;;;;;;;5039374;28;20029;-65
2022/05/11 14:47:02;;;;;;;10.07;3.10;;;;;;;;;;5039137;28;20029;-64
2022/05/11 14:49:27;;;;;;;7.13;3.05;;;;;;;;;;5038897;28;20033;-66
2022/05/11 14:51:53;;;;;;;8.07;3.10;;;;;;;;;;5039030;28;20528;-64
2022/05/11 14:54:19;;;;;;;5.10;3.00;;;;;;;;;;5038786;28;20032;-65
2022/05/11 15:01:55;;;;;;;7.13;3.00;;;;;;;;;;5039155;28;20034;-66
2022/05/11 15:02:14;;;;;;;5.15;2.70;;;;;;;;;;5038209;28;20410;-64
2022/05/11 15:04:42;;;;;;;5.15;3.30;;;;;;;;;;5038920;28;20017;-66
2022/05/11 15:07:10;;;;;;;5.38;3.22;;;;;;;;;;5038694;28;20082;-65
2022/05/11 15:09:35;;;;;;;11.75;3.33;;;;;;;;;;5038196;28;20060;-65
2022/05/11 15:14:46;;;;;;;6.70;3.10;;;;;;;;;;5036171;28;20036;-65
2022/05/11 15:17:17;;;;;;;6.90;3.10;;;;;;;;;;5029774;28;20108;-66
2022/05/11 15:19:43;;;;;;;15.18;3.00;;;;;;;;;;5042598;28;20038;-65
2022/05/11 15:22:08;;;;;;;7.47;2.88;;;;;;;;;;5037328;28;20469;-66
2022/05/11 15:24:34;;;;;;;7.22;2.90;;;;;;;;;;5038432;28;20029;-66
2022/05/11 15:26:59;;;;;;;5.82;2.97;;;;;;;;;;5037491;28;20029;-64
2022/05/11 15:29:25;;;;;;;6.75;2.80;;;;;;;;;;5037885;28;20040;-64
2022/05/11 15:31:51;;;;;;;5.90;3.08;;;;;;;;;;5037726;28;20160;-64
2022/05/11 15:34:20;;;;;;;4.28;2.72;;;;;;;;;;5036936;28;20033;-64
2022/05/11 15:36:46;;;;;;;4.95;2.90;;;;;;;;;;5037690;28;20040;-64
2022/05/11 15:39:12;;;;;;;8.23;2.67;;;;;;;;;;5037544;28;20124;-63
2022/05/11 15:41:39;;;;;;;5.88;2.63;;;;;;;;;;5037259;28;20108;-63
2022/05/11 15:44:07;;;;;;;7.50;2.60;;;;;;;;;;5034846;28;20103;-63
2022/05/11 15:46:33;;;;;;;6.18;2.53;;;;;;;;;;5037306;28;20029;-63
2022/05/11 15:48:59;;;;;;;5.30;2.78;;;;;;;;;;5034519;28;20026;-63